Time;durP1;ratioP1;P1;durP2;ratioP2;P2;SDS_P1;SDS_P2;PMS_P1;PMS_P2;Temp;Humidity;BMP_temperature;BMP_pressure;BME280_temperature;BME280_humidity;BME280_pressure;Samples;Min_cycle;Max_cycle;Signal;HPM_P1;HPM_P2
2022/10/09 00:01:17;;;;;;;17.65;7.22;;;;;;;9.26;69.69;99926.98;1706158;84;21609;-79
2022/10/09 00:03:46;;;;;;;11.35;7.05;;;;;;;9.18;69.87;99922.35;1706149;84;21059;-81
2022/10/09 00:06:18;;;;;;;12.28;6.83;;;;;;;9.12;70.18;99923.79;1706377;84;22050;-81
2022/10/09 00:08:44;;;;;;;12.25;6.92;;;;;;;9.05;70.19;99923.06;1706431;84;22166;-81
2022/10/09 00:11:16;;;;;;;8.60;5.75;;;;;;;8.97;70.47;99919.73;1709652;83;21538;-80
2022/10/09 00:13:43;;;;;;;7.70;6.25;;;;;;;8.89;71.34;99912.05;1712339;83;21035;-81
2022/10/09 00:16:12;;;;;;;10.18;6.75;;;;;;;8.86;71.42;99914.73;1714260;83;21078;-81
2022/10/09 00:18:39;;;;;;;13.00;6.83;;;;;;;8.82;71.35;99913.05;1714080;83;21027;-80
2022/10/09 00:21:05;;;;;;;12.07;6.62;;;;;;;8.79;71.55;99913.11;1713941;83;21219;-82
2022/10/09 00:23:32;;;;;;;11.57;6.70;;;;;;;8.74;71.45;99911.03;1714119;83;21046;-81
2022/10/09 00:26:00;;;;;;;8.93;6.92;;;;;;;8.69;71.81;99902.39;1713995;83;21098;-81
2022/10/09 00:28:28;;;;;;;10.30;7.03;;;;;;;8.64;72.42;99895.95;1714098;83;21046;-81
2022/10/09 00:30:56;;;;;;;10.95;7.30;;;;;;;8.64;72.48;99895.06;1714100;83;21051;-80
2022/10/09 00:33:22;;;;;;;11.75;6.78;;;;;;;8.62;72.59;99889.00;1713872;83;21254;-80
2022/10/09 00:35:49;;;;;;;11.83;6.28;;;;;;;8.59;72.96;99889.05;1713993;83;21126;-81
2022/10/09 00:38:16;;;;;;;10.45;6.20;;;;;;;8.53;72.82;99888.28;1714014;83;21113;-81
2022/10/09 00:40:42;;;;;;;7.17;5.83;;;;;;;8.49;73.32;99881.39;1714010;83;21075;-81
2022/10/09 00:43:16;;;;;;;9.60;5.83;;;;;;;8.45;73.42;99890.19;1713935;83;21110;-81
2022/10/09 00:45:52;;;;;;;11.08;6.47;;;;;;;8.41;73.78;99891.13;1714310;83;21211;-80
2022/10/09 00:48:19;;;;;;;8.80;5.58;;;;;;;8.35;74.07;99887.30;1731397;82;21720;-81
2022/10/09 00:50:51;;;;;;;10.68;5.72;;;;;;;8.29;74.80;99880.89;1749872;82;22201;-81
2022/10/09 00:53:18;;;;;;;11.63;5.90;;;;;;;8.27;74.56;99880.92;1750093;82;21219;-79
2022/10/09 00:55:45;;;;;;;10.03;6.35;;;;;;;8.25;74.25;99879.20;1750267;82;21185;-81
2022/10/09 00:58:12;;;;;;;17.48;7.20;;;;;;;8.19;74.15;99871.87;1713865;83;21271;-81
2022/10/09 01:00:39;;;;;;;8.85;6.58;;;;;;;8.15;74.46;99878.52;1714120;83;20995;-81
2022/10/09 01:03:06;;;;;;;11.05;8.53;;;;;;;8.10;75.13;99873.38;1714060;83;20979;-81
2022/10/09 01:06:01;;;;;;;14.28;7.47;;;;;;;8.06;75.04;99873.00;1714133;83;21078;-80
2022/10/09 01:08:34;;;;;;;;;;;;;;;8.03;75.14;99866.50;1716427;83;21110;-81
2022/10/09 01:11:18;;;;;;;13.43;8.80;;;;;;;7.97;74.96;99870.11;1676568;83;21705;-81
2022/10/09 01:14:21;;;;;;;16.37;8.65;;;;;;;7.91;75.13;99861.50;1714060;83;21082;-80
2022/10/09 01:17:03;;;;;;;15.38;9.83;;;;;;;7.86;75.51;99861.57;1714167;83;21074;-79
2022/10/09 01:19:47;;;;;;;18.52;11.08;;;;;;;7.84;75.62;99867.75;1713248;83;20999;-79
2022/10/09 01:22:50;;;;;;;25.15;10.80;;;;;;;7.78;75.58;99860.42;1749931;81;21158;-80
2022/10/09 01:25:47;;;;;;;17.57;11.08;;;;;;;7.70;75.40;99866.66;1749871;82;21834;-80
2022/10/09 01:28:15;;;;;;;16.90;11.15;;;;;;;7.62;75.47;99860.26;1749652;82;21056;-79
2022/10/09 01:30:43;;;;;;;15.95;11.05;;;;;;;7.56;75.62;99862.97;1750052;82;21060;-79
2022/10/09 01:33:10;;;;;;;15.70;11.10;;;;;;;7.51;75.74;99855.19;1750007;82;21047;-79
2022/10/09 01:35:38;;;;;;;17.77;10.93;;;;;;;7.48;76.10;99860.50;1731581;82;22009;-79
2022/10/09 01:38:04;;;;;;;20.15;11.38;;;;;;;7.46;76.96;99859.63;1749858;82;21646;-79
2022/10/09 01:40:30;;;;;;;14.25;10.30;;;;;;;7.42;77.60;99859.28;1750067;82;21554;-79
2022/10/09 01:42:57;;;;;;;15.70;9.93;;;;;;;7.39;78.10;99864.55;1749846;82;21000;-79
2022/10/09 01:45:25;;;;;;;12.28;9.38;;;;;;;7.37;78.31;99864.58;1750021;82;21984;-79
2022/10/09 01:47:51;;;;;;;13.50;9.15;;;;;;;7.34;78.12;99867.23;1714076;83;21078;-79
2022/10/09 01:50:25;;;;;;;23.35;10.32;;;;;;;7.31;77.80;99872.52;1713782;83;21189;-79
2022/10/09 01:53:06;;;;;;;16.20;10.78;;;;;;;7.30;77.84;99868.19;1750021;81;21166;-80
2022/10/09 01:56:13;;;;;;;15.70;10.43;;;;;;;7.28;77.61;99862.13;1749727;81;21036;-79
2022/10/09 01:58:56;;;;;;;13.58;9.08;;;;;;;7.24;77.94;99856.50;1750008;82;21028;-79
2022/10/09 02:01:33;;;;;;;15.15;10.13;;;;;;;7.20;77.85;99861.38;1750148;81;21015;-79
2022/10/09 02:04:01;;;;;;;18.07;11.57;;;;;;;7.16;77.98;99862.29;1749751;82;21115;-80
2022/10/09 02:06:30;;;;;;;19.10;10.85;;;;;;;7.11;78.58;99860.19;1749903;82;21052;-80
2022/10/09 02:08:56;;;;;;;14.70;9.35;;;;;;;7.09;78.84;99864.59;1749970;82;21031;-79
2022/10/09 02:11:28;;;;;;;12.25;9.00;;;;;;;7.06;78.68;99862.44;1711540;83;21099;-80
2022/10/09 02:13:54;;;;;;;12.70;8.20;;;;;;;7.04;78.69;99864.64;1706450;84;21074;-80
2022/10/09 02:16:39;;;;;;;13.30;8.30;;;;;;;6.99;78.51;99860.81;1706175;84;21244;-78
2022/10/09 02:19:16;;;;;;;17.00;7.97;;;;;;;6.97;78.29;99859.09;1706201;84;21457;-78
2022/10/09 02:21:51;;;;;;;10.10;7.47;;;;;;;6.94;78.57;99858.67;1706119;84;21625;-78
2022/10/09 02:24:19;;;;;;;10.45;7.60;;;;;;;6.90;78.51;99857.00;1706084;84;21004;-79
2022/10/09 02:26:46;;;;;;;12.58;7.65;;;;;;;6.87;78.41;99859.66;1706618;84;21498;-79
2022/10/09 02:29:13;;;;;;;11.30;7.20;;;;;;;6.86;78.48;99852.72;1706329;84;21870;-80
2022/10/09 02:31:41;;;;;;;13.45;7.20;;;;;;;6.85;78.83;99853.59;1706120;84;21054;-80
2022/10/09 02:34:12;;;;;;;9.20;6.45;;;;;;;6.84;79.02;99849.23;1706058;84;21076;-80
2022/10/09 02:36:39;;;;;;;8.90;5.97;;;;;;;6.82;78.81;99850.56;1684618;84;21111;-79
2022/10/09 02:39:06;;;;;;;9.10;6.80;;;;;;;6.81;78.93;99849.30;1706339;84;21068;-80
2022/10/09 02:41:32;;;;;;;8.30;6.15;;;;;;;6.80;78.89;99849.72;1706243;84;21216;-79
2022/10/09 02:43:59;;;;;;;9.80;6.72;;;;;;;6.79;78.86;99847.13;1706645;84;21031;-80
2022/10/09 02:46:25;;;;;;;13.18;7.28;;;;;;;6.79;79.15;99851.05;1706122;84;21105;-80
2022/10/09 02:48:53;;;;;;;13.85;7.37;;;;;;;6.79;79.96;99852.36;1706205;84;21538;-80
2022/10/09 02:51:19;;;;;;;10.75;6.40;;;;;;;6.80;81.34;99844.95;1706061;84;20988;-79
2022/10/09 02:53:46;;;;;;;9.28;6.42;;;;;;;6.83;81.18;99848.37;1706563;84;21254;-79
2022/10/09 02:56:12;;;;;;;13.15;5.95;;;;;;;6.83;80.49;99834.44;1706158;84;21066;-79
2022/10/09 02:58:39;;;;;;;6.67;5.40;;;;;;;6.81;80.02;99840.15;1706692;84;21082;-79
2022/10/09 03:01:06;;;;;;;13.13;6.20;;;;;;;6.79;79.72;99839.28;1706166;84;21047;-79
2022/10/09 03:03:32;;;;;;;9.03;5.30;;;;;;;6.78;79.28;99838.88;1706443;84;21000;-79
2022/10/09 03:06:10;;;;;;;8.13;5.42;;;;;;;6.74;78.81;99837.17;1706276;84;21302;-79
2022/10/09 03:08:39;;;;;;;15.65;5.60;;;;;;;6.68;78.62;99837.68;1706095;84;21078;-79
2022/10/09 03:11:06;;;;;;;7.83;5.37;;;;;;;6.64;78.53;99836.01;1706548;83;21000;-78
2022/10/09 03:13:33;;;;;;;6.97;5.53;;;;;;;6.60;78.67;99830.83;1714029;83;21086;-79
2022/10/09 03:16:08;;;;;;;12.13;5.87;;;;;;;6.56;78.65;99830.02;1714137;83;21136;-79
2022/10/09 03:18:36;;;;;;;8.83;5.80;;;;;;;6.52;78.59;99828.30;1714119;83;21691;-80
2022/10/09 03:21:09;;;;;;;12.40;5.60;;;;;;;6.49;78.50;99827.06;1714007;83;21130;-80
2022/10/09 03:23:35;;;;;;;8.95;5.55;;;;;;;6.45;78.41;99820.13;1750005;81;21178;-79
2022/10/09 03:26:08;;;;;;;10.10;6.72;;;;;;;6.40;78.33;99819.33;1713877;83;21062;-79
2022/10/09 03:28:39;;;;;;;10.38;6.25;;;;;;;6.37;78.46;99827.20;1713964;83;21125;-80
2022/10/09 03:31:06;;;;;;;11.48;6.62;;;;;;;6.32;78.86;99817.68;1713173;83;21304;-79
2022/10/09 03:33:34;;;;;;;17.98;6.37;;;;;;;6.29;79.54;99817.71;1713843;83;21058;-80
2022/10/09 03:36:01;;;;;;;10.85;6.22;;;;;;;6.28;79.92;99821.20;1713924;83;21058;-80
2022/10/09 03:38:27;;;;;;;12.18;6.05;;;;;;;6.27;79.71;99824.72;1714209;83;21110;-79
2022/10/09 03:40:54;;;;;;;8.35;6.62;;;;;;;6.22;79.56;99821.30;1713994;83;21197;-79
2022/10/09 03:43:21;;;;;;;8.45;6.10;;;;;;;6.19;79.34;99816.10;1713883;83;21601;-79
2022/10/09 03:45:47;;;;;;;10.32;7.12;;;;;;;6.14;79.27;99815.29;1713949;83;20980;-80
2022/10/09 03:48:14;;;;;;;17.75;7.75;;;;;;;6.11;79.33;99813.56;1714222;83;21133;-80
2022/10/09 03:50:41;;;;;;;12.45;7.22;;;;;;;6.08;79.15;99812.73;1713976;83;21125;-79
2022/10/09 03:53:09;;;;;;;10.90;6.65;;;;;;;6.04;79.04;99808.00;1713847;83;21038;-76
2022/10/09 03:55:37;;;;;;;11.05;6.33;;;;;;;6.03;78.97;99806.70;1713901;83;21636;-79
2022/10/09 03:58:03;;;;;;;16.90;7.62;;;;;;;5.99;78.97;99805.88;1713902;83;21542;-79
2022/10/09 04:00:30;;;;;;;11.63;7.40;;;;;;;5.97;79.06;99811.98;1714451;83;21000;-80
2022/10/09 04:02:57;;;;;;;12.37;8.13;;;;;;;5.93;79.17;99808.52;1714167;83;21122;-79
2022/10/09 04:05:23;;;;;;;15.45;8.50;;;;;;;5.90;79.55;99808.13;1713677;83;21650;-79
2022/10/09 04:07:50;;;;;;;13.18;7.75;;;;;;;5.88;79.91;99808.55;1713831;83;21150;-80
2022/10/09 04:10:17;;;;;;;14.40;8.58;;;;;;;5.89;80.19;99812.05;1713694;83;20980;-79
2022/10/09 04:12:43;;;;;;;15.53;8.50;;;;;;;5.90;80.24;99811.16;1709425;82;20984;-79
2022/10/09 04:15:11;;;;;;;13.35;8.28;;;;;;;5.87;80.25;99809.45;1706369;84;21135;-80
2022/10/09 04:17:38;;;;;;;14.75;8.25;;;;;;;5.85;80.34;99811.23;1706278;84;21075;-79
2022/10/09 04:20:06;;;;;;;15.35;8.03;;;;;;;5.85;80.52;99808.62;1706230;84;21215;-79
2022/10/09 04:22:34;;;;;;;10.98;7.47;;;;;;;5.84;80.57;99809.94;1706529;84;21091;-79
2022/10/09 04:25:01;;;;;;;11.12;7.62;;;;;;;5.84;80.42;99814.70;1706301;84;21111;-79
2022/10/09 04:27:27;;;;;;;17.90;7.80;;;;;;;5.83;80.25;99811.66;1706299;84;21138;-79
2022/10/09 04:29:54;;;;;;;12.80;8.20;;;;;;;5.82;80.49;99808.64;1706306;84;21067;-79
2022/10/09 04:32:20;;;;;;;12.35;8.00;;;;;;;5.80;80.88;99802.58;1706394;84;21167;-78
2022/10/09 04:34:47;;;;;;;15.10;7.95;;;;;;;5.79;81.09;99797.37;1706393;84;21126;-79
2022/10/09 04:37:13;;;;;;;15.00;8.35;;;;;;;5.79;81.02;99803.45;1706348;84;21082;-79
2022/10/09 04:39:41;;;;;;;14.35;8.48;;;;;;;5.77;81.05;99801.30;1706278;84;21590;-80
2022/10/09 04:42:07;;;;;;;18.40;9.43;;;;;;;5.79;81.54;99800.84;1706299;84;22242;-81
2022/10/09 04:44:34;;;;;;;13.22;8.68;;;;;;;5.81;81.69;99800.38;1706339;84;21562;-79
2022/10/09 04:47:00;;;;;;;17.67;8.03;;;;;;;5.84;82.00;99808.17;1706205;84;21101;-80
2022/10/09 04:49:27;;;;;;;14.73;9.60;;;;;;;5.88;82.28;99805.95;1706374;84;21019;-80
2022/10/09 04:51:53;;;;;;;10.85;7.58;;;;;;;5.91;82.56;99811.14;1706133;84;21201;-79
2022/10/09 04:54:19;;;;;;;10.90;7.62;;;;;;;5.95;82.87;99812.86;1706503;84;21078;-80
2022/10/09 04:56:46;;;;;;;15.10;8.83;;;;;;;6.04;82.97;99813.67;1706269;84;21299;-80
2022/10/09 04:59:12;;;;;;;14.13;9.83;;;;;;;6.10;83.62;99823.61;1706367;84;21063;-80
2022/10/09 05:01:40;;;;;;;15.72;9.93;;;;;;;6.15;85.04;99822.22;1706284;84;21103;-79
2022/10/09 05:04:07;;;;;;;15.32;9.88;;;;;;;6.21;85.88;99823.92;1706340;84;21051;-79
2022/10/09 05:06:34;;;;;;;16.32;8.68;;;;;;;6.29;86.21;99826.86;1706108;84;21597;-80
2022/10/09 05:09:00;;;;;;;12.35;8.03;;;;;;;6.40;86.60;99831.09;1706165;84;21488;-80
2022/10/09 05:11:27;;;;;;;16.65;8.60;;;;;;;6.51;86.60;99822.67;1706199;84;21504;-80
2022/10/09 05:13:55;;;;;;;15.35;8.55;;;;;;;6.59;86.90;99822.13;1706085;83;21119;-80
2022/10/09 05:16:26;;;;;;;17.35;8.20;;;;;;;6.68;87.48;99823.30;1706491;84;21126;-80
2022/10/09 05:18:56;;;;;;;14.75;8.38;;;;;;;6.77;87.52;99821.45;1706345;83;21157;-80
2022/10/09 05:21:23;;;;;;;12.80;9.23;;;;;;;6.86;87.96;99816.95;1706176;84;21786;-80
2022/10/09 05:23:50;;;;;;;15.13;8.90;;;;;;;7.02;88.64;99814.10;1706287;84;21048;-79
2022/10/09 05:26:18;;;;;;;11.28;8.28;;;;;;;7.13;89.25;99812.61;1684530;84;21074;-80
2022/10/09 05:28:45;;;;;;;11.68;8.20;;;;;;;7.22;90.04;99813.79;1706645;84;21038;-80
2022/10/09 05:31:22;;;;;;;13.68;9.18;;;;;;;7.34;91.00;99815.34;1706414;84;21088;-81
2022/10/09 05:33:49;;;;;;;12.53;8.25;;;;;;;7.47;91.75;99810.77;1705616;83;22170;-79
2022/10/09 05:36:16;;;;;;;16.95;8.60;;;;;;;7.63;92.50;99818.33;1706280;84;21609;-81
2022/10/09 05:38:44;;;;;;;16.30;8.98;;;;;;;7.77;92.82;99809.37;1706075;84;21597;-81
2022/10/09 05:41:13;;;;;;;18.55;10.23;;;;;;;7.93;93.28;99819.09;1706242;84;20992;-80
2022/10/09 05:43:42;;;;;;;20.97;10.65;;;;;;;8.10;92.46;99824.01;1742014;82;21052;-82
2022/10/09 05:46:19;;;;;;;20.43;11.57;;;;;;;8.28;91.90;99825.41;1742236;81;21218;-81
2022/10/09 05:48:53;;;;;;;27.10;14.70;;;;;;;8.45;91.90;99840.37;1741760;82;20958;-82
2022/10/09 05:51:29;;;;;;;35.55;15.43;;;;;;;8.61;91.34;99829.12;1742279;82;21045;-81
2022/10/09 05:53:56;;;;;;;41.30;18.90;;;;;;;8.76;90.70;99835.80;1741858;82;20980;-81
2022/10/09 05:56:29;;;;;;;28.32;15.83;;;;;;;8.89;90.27;99830.70;1741842;82;21059;-81
2022/10/09 05:59:02;;;;;;;31.20;15.00;;;;;;;9.00;89.52;99833.06;1741444;81;21199;-81
2022/10/09 06:01:37;;;;;;;24.75;12.47;;;;;;;9.08;89.23;99828.96;1742228;82;21080;-82
2022/10/09 06:04:08;;;;;;;20.32;11.93;;;;;;;9.15;88.97;99829.22;1742068;82;21083;-82
2022/10/09 06:06:36;;;;;;;25.02;11.97;;;;;;;9.21;88.58;99830.83;1742224;82;21889;-82
2022/10/09 06:09:04;;;;;;;17.65;11.10;;;;;;;9.28;88.49;99825.41;1741956;82;21158;-83
2022/10/09 06:11:32;;;;;;;19.40;10.43;;;;;;;9.36;88.14;99828.28;1742260;81;21168;-81
2022/10/09 06:14:00;;;;;;;20.10;10.90;;;;;;;9.44;87.96;99827.64;1752930;81;21102;-81
2022/10/09 06:16:30;;;;;;;22.15;9.80;;;;;;;9.52;87.51;99834.88;1755278;81;21004;-81
2022/10/09 06:18:58;;;;;;;29.30;9.75;;;;;;;9.63;87.33;99824.97;1719326;83;21042;-81
2022/10/09 06:21:25;;;;;;;15.68;9.53;;;;;;;9.78;86.54;99824.14;1719264;83;21106;-82
2022/10/09 06:23:57;;;;;;;17.82;9.73;;;;;;;9.90;85.69;99830.84;1719195;83;22411;-83
2022/10/09 06:26:29;;;;;;;16.48;9.25;;;;;;;10.00;84.35;99830.57;1719083;83;21138;-81
2022/10/09 06:28:58;;;;;;;17.85;10.08;;;;;;;10.11;83.82;99834.66;1719235;83;21152;-83
2022/10/09 06:31:27;;;;;;;13.75;9.13;;;;;;;10.20;82.72;99833.08;1700995;84;21083;-82
2022/10/09 06:33:54;;;;;;;16.40;9.13;;;;;;;10.33;82.49;99837.58;1701011;84;21559;-81
2022/10/09 06:36:24;;;;;;;15.75;8.73;;;;;;;10.46;82.12;99831.07;1701280;84;21508;-82
2022/10/09 06:38:51;;;;;;;11.48;8.23;;;;;;;10.60;81.25;99828.02;1701348;84;21063;-82
2022/10/09 06:41:24;;;;;;;17.90;8.73;;;;;;;10.73;80.46;99833.33;1701314;84;21139;-82
2022/10/09 06:43:57;;;;;;;12.18;7.75;;;;;;;10.83;79.41;99831.75;1701108;84;21088;-83
2022/10/09 06:46:30;;;;;;;12.47;7.50;;;;;;;10.93;79.15;99840.63;1701476;84;21131;-82
2022/10/09 06:48:59;;;;;;;16.17;8.33;;;;;;;11.06;79.01;99835.84;1700773;84;21258;-83
2022/10/09 06:51:26;;;;;;;14.53;8.38;;;;;;;11.19;77.77;99834.13;1701445;84;21163;-82
2022/10/09 06:53:55;;;;;;;13.83;7.92;;;;;;;11.30;77.90;99836.82;1701388;84;21547;-83
2022/10/09 06:56:22;;;;;;;14.68;7.58;;;;;;;11.42;77.18;99834.23;1701365;84;21045;-82
2022/10/09 06:58:49;;;;;;;13.58;8.03;;;;;;;11.56;76.90;99825.02;1701359;84;21548;-82
2022/10/09 07:01:19;;;;;;;14.98;7.65;;;;;;;11.70;76.28;99820.12;1701621;84;21607;-81
2022/10/09 07:03:49;;;;;;;17.42;7.83;;;;;;;11.84;75.73;99827.11;1701094;84;21071;-81
2022/10/09 07:06:20;;;;;;;12.40;7.90;;;;;;;12.01;74.77;99825.69;1678129;84;21076;-82
2022/10/09 07:08:51;;;;;;;12.93;7.75;;;;;;;12.14;74.05;99825.66;1701475;84;21112;-80
2022/10/09 07:11:28;;;;;;;18.30;8.43;;;;;;;12.26;72.83;99819.07;1701365;84;21167;-81
2022/10/09 07:13:56;;;;;;;14.83;7.92;;;;;;;12.39;72.58;99822.98;1695745;84;21155;-82
2022/10/09 07:16:28;;;;;;;17.02;9.58;;;;;;;12.54;72.13;99824.19;1693014;84;21100;-81
2022/10/09 07:18:56;;;;;;;28.17;12.13;;;;;;;12.67;72.09;99818.44;1692738;84;21076;-82
2022/10/09 07:21:24;;;;;;;17.10;10.10;;;;;;;12.80;71.67;99809.97;1692669;84;21128;-80
2022/10/09 07:23:50;;;;;;;18.27;9.48;;;;;;;12.95;71.75;99808.51;1706225;84;22250;-82
2022/10/09 07:26:21;;;;;;;19.30;9.10;;;;;;;13.05;69.96;99802.87;1706115;84;21906;-81
2022/10/09 07:28:48;;;;;;;16.87;8.00;;;;;;;13.12;70.14;99804.34;1706258;83;21612;-82
2022/10/09 07:31:14;;;;;;;19.27;10.35;;;;;;;13.20;69.54;99803.09;1705546;84;21131;-81
2022/10/09 07:33:42;;;;;;;14.50;7.58;;;;;;;13.31;68.87;99805.76;1705714;84;21013;-82
2022/10/09 07:36:09;;;;;;;20.75;7.70;;;;;;;13.40;67.55;99801.46;1705984;84;21013;-82
2022/10/09 07:38:37;;;;;;;18.67;7.67;;;;;;;13.47;67.57;99800.74;1705835;84;21274;-82
2022/10/09 07:41:06;;;;;;;13.95;7.37;;;;;;;13.55;67.48;99805.25;1705949;84;21094;-82
2022/10/09 07:43:37;;;;;;;18.67;7.33;;;;;;;13.65;66.94;99810.54;1706406;84;21100;-81
2022/10/09 07:46:04;;;;;;;17.70;7.37;;;;;;;13.78;66.84;99800.75;1705832;83;21110;-82
2022/10/09 07:48:32;;;;;;;11.97;6.83;;;;;;;13.94;66.31;99801.80;1706049;84;21591;-82
2022/10/09 07:51:12;;;;;;;24.52;7.50;;;;;;;14.10;66.05;99797.56;1678285;84;21267;-82
2022/10/09 07:53:39;;;;;;;17.70;7.22;;;;;;;14.25;64.39;99800.43;1705915;83;21131;-81
2022/10/09 07:56:05;;;;;;;11.30;7.15;;;;;;;14.31;63.35;99802.33;1706081;84;21049;-83
2022/10/09 07:58:34;;;;;;;24.57;8.18;;;;;;;14.36;63.34;99793.34;1706223;84;21622;-82
2022/10/09 08:01:06;;;;;;;21.17;7.08;;;;;;;14.41;63.33;99793.52;1706255;83;21563;-81
2022/10/09 08:03:35;;;;;;;20.23;7.87;;;;;;;14.50;63.16;99793.07;1705618;84;21129;-81
2022/10/09 08:06:02;;;;;;;17.52;6.80;;;;;;;14.60;62.61;99798.84;1705977;84;21099;-82
2022/10/09 08:08:28;;;;;;;19.77;7.42;;;;;;;14.70;62.06;99793.13;1706164;84;21079;-83
2022/10/09 08:10:56;;;;;;;19.40;6.72;;;;;;;14.78;62.01;99799.77;1705959;83;21116;-84
2022/10/09 08:13:24;;;;;;;19.25;7.15;;;;;;;14.86;60.52;99797.62;1707570;83;21887;-80
2022/10/09 08:15:52;;;;;;;19.48;7.60;;;;;;;14.94;60.81;99793.73;1711675;83;20984;-83
2022/10/09 08:18:18;;;;;;;16.62;6.45;;;;;;;15.03;61.00;99795.95;1711583;83;22080;-82
2022/10/09 08:20:51;;;;;;;17.65;6.17;;;;;;;15.10;59.60;99794.71;1711360;83;21745;-83
2022/10/09 08:23:17;;;;;;;14.80;5.65;;;;;;;15.18;60.28;99789.90;1707587;83;21162;-82
2022/10/09 08:25:44;;;;;;;16.00;5.97;;;;;;;15.25;58.97;99783.83;1711588;83;21107;-82
2022/10/09 08:28:11;;;;;;;16.62;6.10;;;;;;;15.31;59.25;99783.98;1711612;83;21215;-83
2022/10/09 08:30:38;;;;;;;18.57;5.92;;;;;;;15.41;58.73;99785.23;1711507;83;21071;-81
2022/10/09 08:33:06;;;;;;;14.18;5.20;;;;;;;15.48;59.10;99789.76;1711738;83;21099;-82
2022/10/09 08:35:33;;;;;;;11.78;5.40;;;;;;;15.57;58.57;99784.85;1711410;83;21102;-82
2022/10/09 08:37:59;;;;;;;20.32;5.62;;;;;;;15.68;57.80;99784.77;1711518;83;21016;-79
2022/10/09 08:40:40;;;;;;;17.02;5.30;;;;;;;15.75;57.74;99778.20;1711617;83;21206;-81
2022/10/09 08:43:09;;;;;;;17.80;4.80;;;;;;;15.87;57.26;99779.38;1711684;83;21013;-84
2022/10/09 08:45:35;;;;;;;11.53;4.35;;;;;;;16.01;55.59;99772.05;1711682;83;21051;-78
2022/10/09 08:48:07;;;;;;;10.80;4.55;;;;;;;16.14;54.92;99763.83;1662984;83;21079;-80
2022/10/09 08:50:37;;;;;;;14.05;4.12;;;;;;;16.26;53.87;99759.17;1711229;83;21079;-80
2022/10/09 08:53:21;;;;;;;5.37;3.47;;;;;;;16.41;54.00;99750.84;1711816;83;21167;-82
2022/10/09 08:55:58;;;;;;;16.10;4.30;;;;;;;16.59;52.89;99740.13;1711685;83;21139;-81
2022/10/09 08:58:33;;;;;;;5.95;3.95;;;;;;;16.74;53.94;99728.63;1711844;83;21087;-79
2022/10/09 09:01:37;;;;;;;8.53;3.60;;;;;;;16.95;53.31;99731.06;1711725;83;21570;-80
2022/10/09 09:04:44;;;;;;;8.55;3.90;;;;;;;17.13;53.09;99745.06;1711572;83;21090;-79
2022/10/09 09:07:28;;;;;;;11.08;3.98;;;;;;;17.25;50.81;99760.33;1711827;83;21814;-81
2022/10/09 09:10:30;;;;;;;18.12;3.98;;;;;;;17.26;49.78;99756.70;1711957;83;21637;-81
2022/10/09 09:13:19;;;;;;;7.28;4.37;;;;;;;17.28;49.48;99749.48;1711414;83;21033;-83
2022/10/09 09:16:01;;;;;;;4.97;3.10;;;;;;;17.27;49.38;99754.44;1711556;83;21053;-81
2022/10/09 09:19:11;;;;;;;10.20;3.00;;;;;;;17.17;48.26;99755.92;1711401;83;21021;-82
2022/10/09 09:21:52;;;;;;;6.12;3.22;;;;;;;17.11;48.44;99753.61;1711501;83;21572;-84
2022/10/09 09:24:20;;;;;;;7.33;3.10;;;;;;;17.14;48.42;99750.78;1711298;83;21146;-83
2022/10/09 09:26:50;;;;;;;8.55;2.87;;;;;;;17.13;48.67;99747.72;1711608;83;21595;-82
2022/10/09 09:29:23;;;;;;;8.25;3.75;;;;;;;17.12;47.98;99744.70;1711446;83;21078;-81
2022/10/09 09:31:53;;;;;;;7.25;3.22;;;;;;;17.15;48.14;99744.53;1711655;83;21143;-80
2022/10/09 09:34:39;;;;;;;8.88;3.85;;;;;;;17.22;48.55;99745.39;1685237;83;21835;-82
2022/10/09 09:37:09;;;;;;;15.53;7.45;;;;;;;17.32;48.17;99740.39;1711973;83;21099;-81
2022/10/09 09:39:36;;;;;;;14.95;7.20;;;;;;;17.40;48.60;99738.14;1711653;83;21623;-82
2022/10/09 09:42:17;;;;;;;8.93;5.15;;;;;;;17.49;47.51;99739.88;1711498;83;22285;-78
2022/10/09 09:44:52;;;;;;;4.85;4.10;;;;;;;17.59;48.20;99741.87;1711668;83;21159;-81
2022/10/09 09:47:26;;;;;;;10.23;6.03;;;;;;;17.75;47.37;99735.17;1685802;83;26718;-79
2022/10/09 09:49:56;;;;;;;10.50;6.60;;;;;;;17.88;47.49;99742.42;1711472;83;21092;-82
2022/10/09 09:52:24;;;;;;;7.45;4.33;;;;;;;18.06;47.98;99738.62;1711969;83;21154;-79
2022/10/09 09:54:51;;;;;;;15.28;8.18;;;;;;;18.26;46.40;99741.87;1711417;83;21068;-81
2022/10/09 09:57:23;;;;;;;10.63;6.50;;;;;;;18.35;45.94;99737.27;1711696;83;21008;-81
2022/10/09 09:59:49;;;;;;;10.35;3.58;;;;;;;18.39;46.13;99734.78;1711155;83;21115;-79
2022/10/09 10:02:19;;;;;;;8.43;4.65;;;;;;;18.46;45.74;99736.13;1711646;83;21051;-78
2022/10/09 10:04:56;;;;;;;7.33;4.08;;;;;;;18.52;46.34;99730.38;1711998;83;21012;-81
2022/10/09 10:07:35;;;;;;;6.85;3.30;;;;;;;18.60;46.58;99731.72;1711370;83;21476;-82
2022/10/09 10:10:10;;;;;;;9.23;4.00;;;;;;;18.76;46.74;99737.74;1711860;83;21086;-80
2022/10/09 10:12:44;;;;;;;5.37;3.20;;;;;;;18.87;45.28;99735.27;1702514;83;21176;-80
2022/10/09 10:15:27;;;;;;;9.57;4.77;;;;;;;18.94;46.30;99733.90;1714151;83;21055;-81
2022/10/09 10:18:07;;;;;;;7.10;3.02;;;;;;;19.07;46.16;99724.63;1714668;83;21613;-84
2022/10/09 10:21:02;;;;;;;5.05;2.70;;;;;;;19.18;43.59;99727.05;1689988;83;21151;-82
2022/10/09 10:23:56;;;;;;;8.70;2.95;;;;;;;19.07;43.71;99724.63;1714971;83;21118;-80
2022/10/09 10:26:45;;;;;;;8.00;2.83;;;;;;;18.96;43.81;99726.30;1714527;83;21820;-82
2022/10/09 10:29:26;;;;;;;8.65;3.05;;;;;;;18.74;43.66;99725.00;1714930;83;21107;-82
2022/10/09 10:32:34;;;;;;;5.65;2.65;;;;;;;18.43;44.96;99725.66;1714639;83;21048;-80
2022/10/09 10:35:14;;;;;;;8.43;3.20;;;;;;;18.26;46.05;99723.22;1714868;83;21544;-79
2022/10/09 10:37:53;;;;;;;10.03;3.33;;;;;;;18.15;46.47;99723.39;1714531;83;21202;-83
2022/10/09 10:40:24;;;;;;;8.15;2.95;;;;;;;18.03;46.72;99724.17;1720018;83;22076;-80
2022/10/09 10:43:11;;;;;;;8.50;2.70;;;;;;;17.91;46.87;99716.95;1719842;83;21578;-84
2022/10/09 10:45:55;;;;;;;11.00;3.10;;;;;;;17.80;47.09;99723.77;1719845;83;21007;-83
2022/10/09 10:48:40;;;;;;;6.83;3.25;;;;;;;17.65;47.71;99712.70;1719223;83;21062;-83
2022/10/09 10:51:27;;;;;;;3.55;2.50;;;;;;;17.55;48.04;99713.76;1698004;83;21185;-82
2022/10/09 10:54:22;;;;;;;4.12;2.60;;;;;;;17.44;47.34;99714.88;1719628;82;22207;-82
2022/10/09 10:57:12;;;;;;;5.62;2.87;;;;;;;17.33;47.36;99707.55;1719784;83;21082;-81
2022/10/09 10:59:59;;;;;;;8.95;3.30;;;;;;;17.24;48.08;99708.08;1719747;83;21063;-80
2022/10/09 11:02:53;;;;;;;6.70;3.15;;;;;;;17.20;49.04;99712.72;1714602;83;21719;-82
2022/10/09 11:05:28;;;;;;;5.10;2.95;;;;;;;17.15;48.72;99708.63;1719964;83;21090;-82
2022/10/09 11:08:06;;;;;;;8.65;4.15;;;;;;;17.08;49.89;99712.97;1719708;82;22359;-83
2022/10/09 11:10:55;;;;;;;6.90;3.40;;;;;;;17.07;50.06;99711.25;1719222;83;21102;-83
2022/10/09 11:13:45;;;;;;;5.97;3.45;;;;;;;17.08;51.02;99707.66;1719910;83;21542;-80
2022/10/09 11:16:17;;;;;;;9.45;3.90;;;;;;;17.11;51.08;99708.41;1718942;83;21134;-82
2022/10/09 11:18:59;;;;;;;9.83;3.80;;;;;;;17.10;50.67;99703.58;1719722;83;21149;-80
2022/10/09 11:21:50;;;;;;;6.33;4.08;;;;;;;17.11;51.30;99705.75;1718381;83;21528;-82
2022/10/09 11:24:49;;;;;;;15.15;4.62;;;;;;;17.16;51.29;99709.00;1720044;83;21665;-83
2022/10/09 11:27:33;;;;;;;5.33;3.77;;;;;;;17.23;51.84;99703.69;1719695;83;21070;-84
2022/10/09 11:30:07;;;;;;;8.38;3.90;;;;;;;17.31;52.05;99700.59;1720245;83;21063;-83
2022/10/09 11:32:37;;;;;;;;;;;;;;;17.37;51.08;99698.42;1722053;83;21577;-82
2022/10/09 11:35:20;;;;;;;7.70;3.85;;;;;;;17.50;52.54;99692.35;1699992;84;21120;-80
2022/10/09 11:38:01;;;;;;;8.58;4.03;;;;;;;17.68;50.95;99699.22;1718291;83;21106;-81
2022/10/09 11:40:38;;;;;;;11.35;4.62;;;;;;;17.77;50.20;99692.47;1718500;83;21027;-80
2022/10/09 11:43:28;;;;;;;6.97;4.58;;;;;;;17.82;50.69;99695.73;1719159;83;21071;-78
2022/10/09 11:46:05;;;;;;;5.35;4.33;;;;;;;17.88;49.90;99702.02;1673465;85;21579;-83
2022/10/09 11:48:43;;;;;;;12.65;5.35;;;;;;;17.80;50.20;99703.80;1709820;83;21264;-81
2022/10/09 11:51:45;;;;;;;10.45;5.28;;;;;;;17.69;50.68;99698.77;1719514;83;21010;-83
2022/10/09 11:54:15;;;;;;;10.08;5.00;;;;;;;17.64;51.98;99700.37;1719253;83;21059;-79
2022/10/09 11:56:59;;;;;;;12.28;5.95;;;;;;;17.53;53.47;99701.00;1719521;83;20964;-79